Time;durP1;ratioP1;P1;durP2;ratioP2;P2;SDS_P1;SDS_P2;PMS_P1;PMS_P2;Temp;Humidity;BMP_temperature;BMP_pressure;BME280_temperature;BME280_humidity;BME280_pressure;Samples;Min_cycle;Max_cycle;Signal;HPM_P1;HPM_P2
2023/05/02 00:00:30;;;;;;;34.37;25.70;;;11.70;99.90;;;;;;6128899;23;20387;-69
2023/05/02 00:02:56;;;;;;;26.40;23.30;;;11.70;99.90;;;;;;6129119;23;20365;-70
2023/05/02 00:05:22;;;;;;;24.30;19.57;;;11.70;99.90;;;;;;6129156;23;20367;-69
2023/05/02 00:07:47;;;;;;;27.77;21.40;;;11.50;99.90;;;;;;6132757;23;20140;-68
2023/05/02 00:10:13;;;;;;;28.00;23.23;;;11.50;99.90;;;;;;6129207;23;20179;-69
2023/05/02 00:12:39;;;;;;;22.03;19.40;;;11.30;99.90;;;;;;6129209;23;20144;-69
2023/05/02 00:15:05;;;;;;;28.40;20.43;;;11.20;99.90;;;;;;6129688;23;20159;-70
2023/05/02 00:17:31;;;;;;;29.83;23.93;;;11.10;99.90;;;;;;6129980;23;20175;-70
2023/05/02 00:19:56;;;;;;;26.50;20.60;;;11.00;99.90;;;;;;6129168;23;20388;-68
2023/05/02 00:22:22;;;;;;;25.93;21.43;;;10.90;99.90;;;;;;6129725;23;20160;-70
2023/05/02 00:24:47;;;;;;;29.00;18.80;;;10.80;99.90;;;;;;6130499;23;20212;-72
2023/05/02 00:27:13;;;;;;;29.10;22.47;;;10.70;99.90;;;;;;6131568;23;20129;-70
2023/05/02 00:29:39;;;;;;;34.93;25.07;;;10.70;99.90;;;;;;6138863;23;20239;-69
2023/05/02 00:32:06;;;;;;;33.60;27.57;;;10.60;99.90;;;;;;6140317;23;20564;-71
2023/05/02 00:34:32;;;;;;;33.37;24.67;;;10.60;99.90;;;;;;6141477;23;20663;-71
2023/05/02 00:36:58;;;;;;;32.03;23.17;;;10.60;99.90;;;;;;6141067;23;20362;-69
2023/05/02 00:39:24;;;;;;;36.07;24.00;;;10.50;99.90;;;;;;6139867;23;20423;-69
2023/05/02 00:41:58;;;;;;;31.47;24.87;;;10.50;99.90;;;;;;6142447;23;20184;-70
2023/05/02 00:44:24;;;;;;;30.70;23.23;;;10.50;99.90;;;;;;6143202;23;20367;-68
2023/05/02 00:46:49;;;;;;;48.07;32.63;;;10.40;99.90;;;;;;6139817;23;20356;-71
2023/05/02 00:49:15;;;;;;;39.37;28.87;;;10.40;99.90;;;;;;6140575;23;20207;-70
2023/05/02 00:51:41;;;;;;;35.67;27.37;;;10.40;99.90;;;;;;6142731;23;20528;-71
2023/05/02 00:54:06;;;;;;;33.60;25.87;;;10.30;99.90;;;;;;6117460;23;20178;-72
2023/05/02 00:56:32;;;;;;;32.97;25.27;;;10.30;99.90;;;;;;6143238;23;20153;-70
2023/05/02 00:58:59;;;;;;;40.30;29.40;;;10.30;99.90;;;;;;6116285;23;20235;-71
2023/05/02 01:01:50;;;;;;;36.37;26.47;;;10.30;99.90;;;;;;6142874;23;20450;-68
2023/05/02 01:04:59;;;;;;;43.03;29.00;;;10.40;99.90;;;;;;6144465;23;20367;-69
2023/05/02 01:07:37;;;;;;;36.17;26.53;;;10.60;99.90;;;;;;6144884;23;20379;-70
2023/05/02 01:10:08;;;;;;;37.30;26.97;;;10.70;99.90;;;;;;6143133;23;20454;-70
2023/05/02 01:13:06;;;;;;;38.23;26.93;;;10.70;99.90;;;;;;6144632;23;20364;-69
2023/05/02 01:15:33;;;;;;;39.40;30.20;;;10.70;99.90;;;;;;6097015;23;20638;-71
2023/05/02 01:18:01;;;;;;;39.77;29.07;;;10.90;99.90;;;;;;6116997;23;20408;-70
2023/05/02 01:20:30;;;;;;;42.13;28.97;;;10.90;99.90;;;;;;6143272;23;20391;-70
2023/05/02 01:23:06;;;;;;;37.73;29.70;;;10.80;99.90;;;;;;6143456;23;20388;-69
2023/05/02 01:26:22;;;;;;;42.60;31.77;;;10.80;99.90;;;;;;6138947;23;20374;-71
2023/05/02 01:29:03;;;;;;;39.60;28.27;;;10.80;99.90;;;;;;6135737;23;20398;-69
2023/05/02 01:31:37;;;;;;;40.47;29.43;;;10.70;99.90;;;;;;6135487;23;20405;-70
2023/05/02 01:34:06;;;;;;;45.10;31.30;;;10.70;99.90;;;;;;6134149;23;20419;-68
2023/05/02 01:36:33;;;;;;;48.10;33.17;;;10.70;99.90;;;;;;6133982;23;20367;-69
2023/05/02 01:39:02;;;;;;;45.30;31.97;;;10.60;99.90;;;;;;6135900;23;20522;-70
2023/05/02 01:41:31;;;;;;;44.80;32.67;;;10.50;99.90;;;;;;6116863;23;20423;-68
2023/05/02 01:43:58;;;;;;;48.93;33.30;;;10.40;99.90;;;;;;6134339;23;20631;-70
2023/05/02 01:46:26;;;;;;;50.10;34.83;;;10.40;99.90;;;;;;6128142;23;20388;-70
2023/05/02 01:48:54;;;;;;;45.53;33.83;;;10.40;99.90;;;;;;6128270;23;20372;-70
2023/05/02 01:51:21;;;;;;;44.97;30.50;;;10.40;99.90;;;;;;6104340;23;20372;-69
2023/05/02 01:53:49;;;;;;;51.67;34.83;;;10.40;99.90;;;;;;6103252;23;20782;-68
2023/05/02 01:56:18;;;;;;;47.07;33.50;;;10.40;99.90;;;;;;6129994;23;20376;-69
2023/05/02 01:58:46;;;;;;;49.13;32.50;;;10.40;99.90;;;;;;6103760;23;20651;-70
2023/05/02 02:01:13;;;;;;;49.33;33.57;;;10.30;99.90;;;;;;6104523;23;20455;-69
2023/05/02 02:03:40;;;;;;;44.73;29.60;;;10.30;99.90;;;;;;6131346;23;20399;-67
2023/05/02 02:06:07;;;;;;;55.57;35.83;;;10.30;99.90;;;;;;6128899;23;20376;-67
2023/05/02 02:08:32;;;;;;;57.63;37.60;;;10.30;99.90;;;;;;6131445;23;20375;-69
2023/05/02 02:11:03;;;;;;;55.33;37.20;;;10.40;99.90;;;;;;6106203;23;20666;-69
2023/05/02 02:13:34;;;;;;;51.00;34.27;;;10.40;99.90;;;;;;6131100;23;20188;-69
2023/05/02 02:16:04;;;;;;;53.60;34.53;;;10.40;99.90;;;;;;6130944;23;20450;-70
2023/05/02 02:18:37;;;;;;;52.93;34.67;;;10.40;99.90;;;;;;6129966;23;20407;-71
2023/05/02 02:21:06;;;;;;;49.27;32.10;;;10.50;99.90;;;;;;6104730;23;20371;-67
2023/05/02 02:23:35;;;;;;;51.90;34.00;;;10.50;99.90;;;;;;6104241;23;20427;-68
2023/05/02 02:26:02;;;;;;;42.67;27.87;;;10.50;99.90;;;;;;6129969;23;20383;-69
2023/05/02 02:28:28;;;;;;;65.13;36.67;;;10.60;99.90;;;;;;6128850;23;20410;-70
2023/05/02 02:30:54;;;;;;;47.50;31.37;;;10.50;99.90;;;;;;6103648;23;20391;-68
2023/05/02 02:33:23;;;;;;;51.43;32.90;;;10.60;99.90;;;;;;6130093;23;20132;-69
2023/05/02 02:35:57;;;;;;;59.90;38.30;;;10.60;99.90;;;;;;6103545;23;20396;-69
2023/05/02 02:38:49;;;;;;;52.63;33.37;;;10.60;99.90;;;;;;6103450;23;20506;-69
2023/05/02 02:41:35;;;;;;;51.20;33.07;;;10.50;99.90;;;;;;6129371;23;20415;-69
2023/05/02 02:44:20;;;;;;;49.27;31.80;;;10.60;99.90;;;;;;6129326;23;20362;-69
2023/05/02 02:47:00;;;;;;;50.23;31.60;;;10.60;99.90;;;;;;6103321;23;20434;-68
2023/05/02 02:49:37;;;;;;;47.47;31.30;;;10.60;99.90;;;;;;6128688;23;20430;-68
2023/05/02 02:52:10;;;;;;;48.93;30.97;;;10.60;99.90;;;;;;6129156;23;20675;-69
2023/05/02 02:54:51;;;;;;;43.83;27.07;;;10.60;99.90;;;;;;6103519;23;20415;-68
2023/05/02 02:57:27;;;;;;;37.53;24.70;;;10.60;99.90;;;;;;6128534;23;20364;-68
2023/05/02 03:00:10;;;;;;;40.47;24.90;;;10.60;99.90;;;;;;6128605;23;20575;-68
2023/05/02 03:02:37;;;;;;;39.60;24.03;;;10.60;99.90;;;;;;6103945;23;20868;-68
2023/05/02 03:05:04;;;;;;;43.10;28.60;;;10.60;99.90;;;;;;6103559;23;20363;-68
2023/05/02 03:07:30;;;;;;;45.80;28.00;;;10.60;99.90;;;;;;6130681;23;20360;-68
2023/05/02 03:09:57;;;;;;;48.03;29.30;;;10.50;99.90;;;;;;6127467;23;20400;-68
2023/05/02 03:12:23;;;;;;;34.33;24.17;;;10.50;99.90;;;;;;6127733;23;20360;-69
2023/05/02 03:14:49;;;;;;;49.03;31.10;;;10.60;99.90;;;;;;6127276;23;20467;-69
2023/05/02 03:17:16;;;;;;;42.57;30.40;;;10.60;99.90;;;;;;6103584;23;20650;-68
2023/05/02 03:19:41;;;;;;;42.57;27.00;;;10.60;99.90;;;;;;6128516;23;20392;-69
2023/05/02 03:22:07;;;;;;;42.97;28.43;;;10.60;99.90;;;;;;6103335;23;20144;-68
2023/05/02 03:24:34;;;;;;;46.50;28.40;;;10.60;99.90;;;;;;6103078;23;20179;-67
2023/05/02 03:27:01;;;;;;;38.30;24.43;;;10.60;99.90;;;;;;6105587;23;20839;-70
2023/05/02 03:29:32;;;;;;;41.70;26.20;;;10.60;99.90;;;;;;6129968;23;20479;-69
2023/05/02 03:31:58;;;;;;;42.83;27.20;;;10.60;99.90;;;;;;6128273;23;20367;-69
2023/05/02 03:34:24;;;;;;;39.13;25.53;;;10.60;99.90;;;;;;6102972;23;20529;-71
2023/05/02 03:36:51;;;;;;;44.03;27.83;;;10.60;99.90;;;;;;6102690;23;20380;-69
2023/05/02 03:39:17;;;;;;;47.20;25.80;;;10.60;99.90;;;;;;6127655;23;20445;-69
2023/05/02 03:41:43;;;;;;;47.10;28.60;;;10.60;99.90;;;;;;6101619;23;20188;-69
2023/05/02 03:44:13;;;;;;;40.20;25.80;;;10.60;99.90;;;;;;6126721;23;20380;-68
2023/05/02 03:46:39;;;;;;;40.07;24.53;;;10.60;99.90;;;;;;6102076;23;20384;-68
2023/05/02 03:49:09;;;;;;;33.03;21.70;;;10.70;99.90;;;;;;6079046;23;20222;-69
2023/05/02 03:51:34;;;;;;;37.23;24.47;;;10.70;99.90;;;;;;6126917;23;20686;-69
2023/05/02 03:54:03;;;;;;;42.40;26.97;;;10.60;99.90;;;;;;6126478;23;20588;-67
2023/05/02 03:56:30;;;;;;;35.80;23.27;;;10.70;99.90;;;;;;6103113;23;20136;-68
2023/05/02 03:59:16;;;;;;;37.10;22.17;;;10.70;99.90;;;;;;6101754;23;20442;-69
2023/05/02 04:01:42;;;;;;;40.40;23.87;;;10.70;99.90;;;;;;6104889;23;20463;-68
2023/05/02 04:04:11;;;;;;;36.07;22.80;;;10.70;99.90;;;;;;6131027;23;20749;-68
2023/05/02 04:06:44;;;;;;;37.53;24.33;;;10.70;99.90;;;;;;6131019;23;20438;-69
2023/05/02 04:09:10;;;;;;;35.80;25.03;;;10.70;99.90;;;;;;6106744;23;20410;-72
2023/05/02 04:11:42;;;;;;;34.60;22.90;;;10.70;99.90;;;;;;6108332;23;20817;-70
2023/05/02 04:14:09;;;;;;;37.77;23.67;;;10.70;99.90;;;;;;6106978;23;20415;-69
2023/05/02 04:16:35;;;;;;;38.13;22.97;;;10.70;99.90;;;;;;6112384;23;20372;-70
2023/05/02 04:19:01;;;;;;;40.80;22.77;;;10.70;99.90;;;;;;6115555;23;20462;-71
2023/05/02 04:21:27;;;;;;;36.50;23.67;;;10.80;99.90;;;;;;6093770;23;20375;-68
2023/05/02 04:23:53;;;;;;;35.93;23.63;;;10.80;99.90;;;;;;6116000;23;20430;-70
2023/05/02 04:26:20;;;;;;;38.00;24.67;;;10.80;99.90;;;;;;6140888;23;20360;-70
2023/05/02 04:28:52;;;;;;;41.57;27.00;;;10.70;99.90;;;;;;6146364;23;20448;-70
2023/05/02 04:31:18;;;;;;;41.27;25.00;;;10.70;99.90;;;;;;6111882;23;20383;-69
2023/05/02 04:33:44;;;;;;;37.00;23.60;;;10.70;99.90;;;;;;6131779;23;20577;-70
2023/05/02 04:36:11;;;;;;;42.27;28.40;;;10.70;99.90;;;;;;6131788;23;20356;-69
2023/05/02 04:38:40;;;;;;;39.83;25.10;;;10.80;99.90;;;;;;6105888;23;20435;-69
2023/05/02 04:41:06;;;;;;;38.03;22.60;;;10.80;99.90;;;;;;6132866;23;20836;-68
2023/05/02 04:43:38;;;;;;;42.63;26.60;;;10.80;99.90;;;;;;6107024;23;20152;-70
2023/05/02 04:46:04;;;;;;;36.27;23.20;;;10.80;99.90;;;;;;6107693;23;20372;-71
2023/05/02 04:48:33;;;;;;;32.57;21.20;;;10.80;99.90;;;;;;6084854;23;20179;-70
2023/05/02 04:50:59;;;;;;;41.53;25.03;;;10.80;99.90;;;;;;6136861;23;20363;-69
2023/05/02 04:53:25;;;;;;;41.60;25.40;;;10.80;99.90;;;;;;6107961;23;20525;-71
2023/05/02 04:55:51;;;;;;;53.40;26.17;;;10.80;99.90;;;;;;6109447;23;20454;-72
2023/05/02 04:58:17;;;;;;;46.20;25.93;;;10.80;99.90;;;;;;6111096;23;20412;-70
2023/05/02 05:00:47;;;;;;;34.30;22.20;;;10.80;99.90;;;;;;6088591;23;20176;-71
2023/05/02 05:03:13;;;;;;;39.93;26.07;;;10.80;99.90;;;;;;6133988;23;20690;-71
2023/05/02 05:05:38;;;;;;;33.10;23.40;;;10.80;99.90;;;;;;6110953;23;20148;-72
2023/05/02 05:08:10;;;;;;;39.13;22.03;;;10.90;99.90;;;;;;6134287;23;20140;-72
2023/05/02 05:10:39;;;;;;;46.53;26.77;;;10.90;99.90;;;;;;6134049;23;20419;-69
2023/05/02 05:13:05;;;;;;;31.40;20.90;;;10.90;99.90;;;;;;6134929;23;20376;-69
2023/05/02 05:15:32;;;;;;;40.53;23.47;;;11.00;99.90;;;;;;6116046;23;20368;-71
2023/05/02 05:17:59;;;;;;;34.30;21.43;;;11.00;99.90;;;;;;6108973;23;20420;-71
2023/05/02 05:20:25;;;;;;;35.73;20.17;;;11.00;99.90;;;;;;6109595;23;20430;-69
2023/05/02 05:22:54;;;;;;;39.53;24.97;;;11.10;99.90;;;;;;6133616;23;20160;-72
2023/05/02 05:25:21;;;;;;;33.90;23.30;;;11.10;99.90;;;;;;6136396;23;20363;-71
2023/05/02 05:27:51;;;;;;;35.67;21.73;;;11.10;99.90;;;;;;6109536;23;20383;-70
2023/05/02 05:30:16;;;;;;;39.13;23.90;;;11.10;99.90;;;;;;6109498;23;20404;-72
2023/05/02 05:32:42;;;;;;;31.13;20.00;;;11.20;99.90;;;;;;6136008;23;20363;-69
2023/05/02 05:35:08;;;;;;;38.90;20.47;;;11.20;99.90;;;;;;6110688;23;20168;-72
2023/05/02 05:37:38;;;;;;;27.67;17.93;;;11.20;99.90;;;;;;6136474;23;20170;-73
2023/05/02 05:40:07;;;;;;;30.30;18.73;;;11.20;99.90;;;;;;6089389;23;20424;-70
2023/05/02 05:42:34;;;;;;;25.53;17.43;;;11.20;99.90;;;;;;6137600;23;20443;-71
2023/05/02 05:45:06;;;;;;;28.70;19.30;;;11.20;99.90;;;;;;6116206;23;20372;-75
2023/05/02 05:47:32;;;;;;;29.03;19.60;;;11.20;99.90;;;;;;6114874;23;20394;-70
2023/05/02 05:49:58;;;;;;;33.50;20.00;;;11.20;99.90;;;;;;6110039;23;20392;-73
2023/05/02 05:52:27;;;;;;;27.70;19.30;;;11.20;99.90;;;;;;6112414;23;20518;-73
2023/05/02 05:54:55;;;;;;;30.87;19.03;;;11.20;99.90;;;;;;6110353;23;20734;-70
2023/05/02 05:57:21;;;;;;;31.00;20.20;;;11.20;99.90;;;;;;6109577;23;20731;-70
2023/05/02 05:59:48;;;;;;;32.30;19.83;;;11.20;99.90;;;;;;6133111;23;20470;-72
2023/05/02 06:02:15;;;;;;;35.10;20.83;;;11.30;99.90;;;;;;6133766;23;20402;-71
2023/05/02 06:04:41;;;;;;;27.10;15.53;;;11.30;99.90;;;;;;6110627;23;20360;-70
2023/05/02 06:07:07;;;;;;;33.73;23.13;;;11.30;99.90;;;;;;6108278;23;20387;-70
2023/05/02 06:09:33;;;;;;;33.53;19.87;;;11.40;99.90;;;;;;6134720;23;20427;-74
2023/05/02 06:12:01;;;;;;;36.00;20.07;;;11.30;99.90;;;;;;6108503;23;20148;-72
2023/05/02 06:14:27;;;;;;;28.77;17.53;;;11.40;99.90;;;;;;6134614;23;20360;-72
2023/05/02 06:16:53;;;;;;;29.93;20.13;;;11.30;99.90;;;;;;6109375;23;20415;-71
2023/05/02 06:19:18;;;;;;;30.23;17.93;;;11.20;99.90;;;;;;6134591;23;20199;-72
2023/05/02 06:21:44;;;;;;;30.20;19.10;;;11.20;99.90;;;;;;6134158;23;20136;-72
2023/05/02 06:24:09;;;;;;;34.43;21.17;;;11.20;99.90;;;;;;6137565;23;20155;-71
2023/05/02 06:26:36;;;;;;;34.53;20.47;;;11.10;99.90;;;;;;6135711;23;20137;-73
2023/05/02 06:29:02;;;;;;;32.90;19.87;;;11.10;99.90;;;;;;6111701;23;20389;-73
2023/05/02 06:31:28;;;;;;;31.30;20.53;;;11.00;99.90;;;;;;6137127;23;20581;-73
2023/05/02 06:33:53;;;;;;;36.43;23.50;;;11.00;99.90;;;;;;6139341;23;20391;-71
2023/05/02 06:36:19;;;;;;;31.70;21.33;;;11.10;99.90;;;;;;6136270;23;20139;-74
2023/05/02 06:38:44;;;;;;;33.23;21.10;;;11.10;99.90;;;;;;6111243;23;20227;-72
2023/05/02 06:41:14;;;;;;;36.10;20.67;;;11.00;99.90;;;;;;6108280;23;20199;-71
2023/05/02 06:43:39;;;;;;;35.27;21.40;;;10.90;99.90;;;;;;6136703;23;20163;-72
2023/05/02 06:46:05;;;;;;;33.03;20.63;;;10.90;99.90;;;;;;6136438;23;20364;-73
2023/05/02 06:48:31;;;;;;;32.70;20.20;;;10.80;99.90;;;;;;6110740;23;20147;-71
2023/05/02 06:50:56;;;;;;;38.17;22.80;;;10.80;99.90;;;;;;6136016;23;20563;-70
2023/05/02 06:53:22;;;;;;;27.87;19.50;;;10.80;99.90;;;;;;6140438;23;20356;-74
2023/05/02 06:55:48;;;;;;;35.23;21.37;;;10.80;99.90;;;;;;6145114;23;20159;-72
2023/05/02 06:58:13;;;;;;;37.73;22.80;;;10.90;99.90;;;;;;6119264;23;20182;-74
2023/05/02 07:00:39;;;;;;;33.97;22.13;;;10.90;99.90;;;;;;6143777;23;20400;-72
2023/05/02 07:03:05;;;;;;;33.03;20.30;;;11.00;99.90;;;;;;6115924;23;20156;-74
2023/05/02 07:05:31;;;;;;;31.70;18.83;;;11.10;99.90;;;;;;6136513;23;20214;-72
2023/05/02 07:07:56;;;;;;;32.30;20.13;;;11.30;99.90;;;;;;6137611;23;20140;-72
2023/05/02 07:10:22;;;;;;;30.33;20.10;;;11.40;99.90;;;;;;6138349;23;20167;-74
2023/05/02 07:12:47;;;;;;;28.30;18.87;;;11.40;99.90;;;;;;6139170;23;20204;-73
2023/05/02 07:15:15;;;;;;;27.00;17.27;;;11.40;99.90;;;;;;6139394;23;20459;-71
2023/05/02 07:17:41;;;;;;;30.10;17.90;;;11.40;99.90;;;;;;6137815;23;20159;-74
2023/05/02 07:20:07;;;;;;;25.30;17.10;;;11.40;99.90;;;;;;6111630;23;20482;-73
2023/05/02 07:22:33;;;;;;;27.77;16.10;;;11.40;99.90;;;;;;6140994;23;20212;-73
2023/05/02 07:25:00;;;;;;;21.20;15.20;;;11.50;99.90;;;;;;6113626;23;20382;-74
2023/05/02 07:27:26;;;;;;;18.70;13.93;;;11.60;99.90;;;;;;6111419;23;20437;-70
2023/05/02 07:29:52;;;;;;;30.47;17.47;;;11.60;99.90;;;;;;6088767;23;20410;-72
2023/05/02 07:32:18;;;;;;;21.17;16.20;;;11.80;99.90;;;;;;6141345;23;20136;-74
2023/05/02 07:34:44;;;;;;;20.63;14.87;;;12.00;99.90;;;;;;6091458;23;20179;-76
2023/05/02 07:37:10;;;;;;;20.90;16.03;;;12.20;99.90;;;;;;6139228;23;20368;-75
2023/05/02 07:39:36;;;;;;;22.17;17.30;;;12.30;99.90;;;;;;6137418;23;20466;-73
2023/05/02 07:42:02;;;;;;;24.13;17.50;;;12.30;99.90;;;;;;6085012;23;20651;-74
2023/05/02 07:44:28;;;;;;;30.70;20.70;;;12.40;99.90;;;;;;6084797;23;20160;-73
2023/05/02 07:46:54;;;;;;;25.50;18.93;;;12.40;99.90;;;;;;6108231;23;20368;-74
2023/05/02 07:49:19;;;;;;;25.57;17.27;;;12.30;99.90;;;;;;6062148;23;20180;-74
2023/05/02 07:51:45;;;;;;;26.93;21.83;;;12.10;99.90;;;;;;6061823;23;20452;-72
2023/05/02 07:54:15;;;;;;;24.00;17.63;;;12.10;99.90;;;;;;6108227;23;20148;-72
2023/05/02 07:56:42;;;;;;;25.80;19.60;;;12.00;99.90;;;;;;6108593;23;20152;-73
2023/05/02 07:59:08;;;;;;;26.90;18.80;;;11.90;99.90;;;;;;6084010;23;20484;-73
2023/05/02 08:01:35;;;;;;;23.93;18.17;;;12.00;99.90;;;;;;6114635;23;20365;-73
2023/05/02 08:04:00;;;;;;;21.57;17.57;;;12.00;99.90;;;;;;6110865;23;20369;-72
2023/05/02 08:06:27;;;;;;;25.07;18.10;;;12.00;99.90;;;;;;6085957;23;20415;-69
2023/05/02 08:08:53;;;;;;;23.07;15.27;;;11.90;99.90;;;;;;6083682;23;20200;-71
2023/05/02 08:11:20;;;;;;;26.23;16.53;;;11.80;99.90;;;;;;6108468;23;20751;-71
2023/05/02 08:13:49;;;;;;;25.97;16.73;;;11.70;99.90;;;;;;6109575;23;20424;-72
2023/05/02 08:16:15;;;;;;;23.07;15.40;;;11.70;99.90;;;;;;6082785;23;20396;-71
2023/05/02 08:18:40;;;;;;;17.67;13.40;;;11.70;99.90;;;;;;6106380;23;20411;-72
2023/05/02 08:21:07;;;;;;;24.00;13.63;;;11.90;99.90;;;;;;6111000;23;20145;-71
2023/05/02 08:23:33;;;;;;;20.17;13.67;;;12.20;99.90;;;;;;6083052;23;20152;-72
2023/05/02 08:25:58;;;;;;;22.00;14.37;;;12.40;99.90;;;;;;6086430;23;20675;-75
2023/05/02 08:28:24;;;;;;;22.73;14.37;;;12.60;99.90;;;;;;6111864;23;20163;-72
2023/05/02 08:30:50;;;;;;;19.13;13.50;;;12.80;99.90;;;;;;6090468;23;20183;-71
2023/05/02 08:33:15;;;;;;;19.93;12.73;;;12.80;99.90;;;;;;6088952;23;20161;-74
2023/05/02 08:35:41;;;;;;;17.60;10.63;;;12.90;99.90;;;;;;6087830;23;20156;-72
2023/05/02 08:38:07;;;;;;;13.53;8.77;;;13.10;99.90;;;;;;6087020;23;20173;-72
2023/05/02 08:40:38;;;;;;;12.00;7.70;;;13.20;99.90;;;;;;6098603;23;20239;-75
2023/05/02 08:43:05;;;;;;;11.53;7.73;;;13.30;99.90;;;;;;6116964;23;20163;-72
2023/05/02 08:45:41;;;;;;;11.70;8.67;;;13.40;99.90;;;;;;6115415;23;20376;-72
2023/05/02 08:48:09;;;;;;;14.10;10.27;;;13.40;99.90;;;;;;6143859;23;20397;-72
2023/05/02 08:50:46;;;;;;;13.13;9.07;;;13.30;99.90;;;;;;6140644;23;20387;-73
2023/05/02 08:53:13;;;;;;;9.27;7.57;;;13.10;99.90;;;;;;6090697;23;20390;-74
2023/05/02 08:55:40;;;;;;;10.43;5.80;;;13.00;99.90;;;;;;6116676;23;20372;-74
2023/05/02 08:58:10;;;;;;;5.30;4.20;;;12.90;99.90;;;;;;6113023;23;20426;-72
2023/05/02 09:00:39;;;;;;;6.90;4.07;;;12.90;99.90;;;;;;6139615;23;20391;-71
2023/05/02 09:03:20;;;;;;;5.50;3.37;;;13.10;99.90;;;;;;6117753;23;20368;-73
2023/05/02 09:05:51;;;;;;;10.57;4.20;;;13.10;99.90;;;;;;6116262;23;20408;-73
2023/05/02 09:08:21;;;;;;;8.17;3.63;;;13.30;99.90;;;;;;6142899;23;20487;-71
2023/05/02 09:10:48;;;;;;;6.10;4.03;;;13.60;97.70;;;;;;6113468;23;20399;-76
2023/05/02 09:13:39;;;;;;;6.10;3.57;;;13.80;96.80;;;;;;6113913;23;20374;-74
2023/05/02 09:16:15;;;;;;;10.07;7.37;;;13.80;97.10;;;;;;6141219;23;20376;-72
2023/05/02 09:18:48;;;;;;;10.33;7.77;;;13.60;92.90;;;;;;6113215;23;20419;-73
2023/05/02 09:21:21;;;;;;;14.43;7.13;;;13.40;92.90;;;;;;6140425;23;20618;-74
2023/05/02 09:23:52;;;;;;;9.83;6.50;;;13.20;93.40;;;;;;6113887;23;20388;-73
2023/05/02 09:26:20;;;;;;;9.20;6.90;;;13.10;94.40;;;;;;6139532;23;20360;-74
2023/05/02 09:28:56;;;;;;;12.10;8.07;;;12.90;94.20;;;;;;6139389;23;20356;-73
2023/05/02 09:31:33;;;;;;;11.77;8.20;;;12.90;93.10;;;;;;6115346;23;20371;-75
2023/05/02 09:34:11;;;;;;;13.70;9.43;;;12.80;93.40;;;;;;6119060;23;20378;-74
2023/05/02 09:36:42;;;;;;;12.37;8.90;;;12.70;94.80;;;;;;6120522;23;20367;-75
2023/05/02 09:39:13;;;;;;;18.77;8.30;;;12.80;93.80;;;;;;6143297;23;20454;-76
2023/05/02 09:41:41;;;;;;;12.50;8.70;;;13.00;93.20;;;;;;6141565;23;20417;-74
2023/05/02 09:44:10;;;;;;;12.83;8.70;;;13.20;90.80;;;;;;6140852;23;20435;-75
2023/05/02 09:46:40;;;;;;;10.73;8.20;;;13.20;88.70;;;;;;6116586;23;20391;-75
2023/05/02 09:49:08;;;;;;;13.10;8.73;;;13.50;89.60;;;;;;6118251;23;20449;-73
2023/05/02 09:51:34;;;;;;;12.13;9.40;;;13.60;84.70;;;;;;6115669;23;20671;-73
2023/05/02 09:54:00;;;;;;;10.23;8.30;;;13.80;80.10;;;;;;6138475;23;20412;-72
2023/05/02 09:56:25;;;;;;;11.17;9.50;;;14.00;81.30;;;;;;6140978;23;20140;-74
2023/05/02 09:58:56;;;;;;;12.03;9.50;;;14.00;75.70;;;;;;6139682;23;20168;-74
2023/05/02 10:01:22;;;;;;;12.00;9.50;;;14.00;76.30;;;;;;6140224;23;20604;-74
2023/05/02 10:03:48;;;;;;;13.60;9.13;;;14.00;74.20;;;;;;6118101;23;20371;-74
2023/05/02 10:06:15;;;;;;;11.73;10.17;;;13.90;75.10;;;;;;6143137;23;20207;-72
2023/05/02 10:08:44;;;;;;;12.80;8.77;;;13.70;79.50;;;;;;6115926;23;20406;-72
2023/05/02 10:11:11;;;;;;;12.47;9.23;;;13.70;78.60;;;;;;6139813;23;20376;-73
2023/05/02 10:13:39;;;;;;;16.07;11.70;;;13.70;76.30;;;;;;6116904;23;20407;-74
2023/05/02 10:16:06;;;;;;;12.23;8.10;;;13.70;74.60;;;;;;6143010;23;20617;-75
2023/05/02 10:19:02;;;;;;;9.63;8.10;;;13.80;76.30;;;;;;6115345;23;20404;-75
2023/05/02 10:21:31;;;;;;;10.57;8.13;;;13.90;74.90;;;;;;6096133;23;20391;-74
2023/05/02 10:23:59;;;;;;;11.57;8.00;;;14.00;69.50;;;;;;6117246;23;20418;-73
2023/05/02 10:26:27;;;;;;;11.63;7.50;;;14.10;69.10;;;;;;6099017;23;20392;-75
2023/05/02 10:28:55;;;;;;;11.53;7.37;;;14.20;65.80;;;;;;6121043;23;20443;-73
2023/05/02 10:31:21;;;;;;;11.00;7.00;;;14.20;66.50;;;;;;6119639;23;20371;-73
2023/05/02 10:33:51;;;;;;;9.27;6.23;;;14.40;65.80;;;;;;6145055;23;20384;-73
2023/05/02 10:36:21;;;;;;;9.47;6.23;;;14.60;63.00;;;;;;6119670;23;20364;-74
2023/05/02 10:38:47;;;;;;;7.47;5.20;;;14.60;62.40;;;;;;6144472;23;20409;-74
2023/05/02 10:41:20;;;;;;;9.97;5.27;;;14.50;63.70;;;;;;6119421;23;20440;-74
2023/05/02 10:43:48;;;;;;;9.37;5.90;;;14.40;60.60;;;;;;6120294;23;20408;-74
2023/05/02 10:46:29;;;;;;;8.13;5.77;;;14.20;61.90;;;;;;6143833;23;20392;-73
2023/05/02 10:49:07;;;;;;;6.80;4.80;;;14.10;62.40;;;;;;6117452;23;20404;-75
2023/05/02 10:51:35;;;;;;;10.00;5.47;;;14.00;61.90;;;;;;6117944;23;20404;-74
2023/05/02 10:54:18;;;;;;;8.00;5.20;;;13.90;60.20;;;;;;6093952;23;20396;-73
2023/05/02 10:57:03;;;;;;;7.77;6.00;;;13.70;62.80;;;;;;6115761;23;20464;-75
2023/05/02 10:59:30;;;;;;;6.63;6.03;;;13.60;66.10;;;;;;6116703;23;20431;-73
2023/05/02 11:01:56;;;;;;;10.10;8.33;;;13.70;68.50;;;;;;6144769;23;20364;-75
2023/05/02 11:04:23;;;;;;;7.73;6.93;;;13.80;68.20;;;;;;6141541;23;20399;-74
2023/05/02 11:06:58;;;;;;;9.67;7.00;;;13.80;67.60;;;;;;6116915;23;20360;-74
2023/05/02 11:09:23;;;;;;;8.53;7.20;;;14.00;68.90;;;;;;6115338;23;20414;-72
2023/05/02 11:11:51;;;;;;;13.77;9.10;;;14.30;63.30;;;;;;6113609;23;20807;-74
2023/05/02 11:14:27;;;;;;;8.00;6.30;;;14.50;61.80;;;;;;6140265;23;20156;-74
2023/05/02 11:16:56;;;;;;;6.57;5.97;;;14.70;59.70;;;;;;6141563;23;20394;-74
2023/05/02 11:19:22;;;;;;;12.07;6.80;;;14.70;59.80;;;;;;6140533;23;20429;-74
2023/05/02 11:21:49;;;;;;;9.40;6.70;;;14.90;58.90;;;;;;6140848;23;20355;-76
2023/05/02 11:24:41;;;;;;;8.73;6.73;;;14.90;58.50;;;;;;6092928;23;20771;-74
2023/05/02 11:27:38;;;;;;;11.03;6.23;;;15.00;58.20;;;;;;6119017;23;20366;-77
2023/05/02 11:30:05;;;;;;;11.63;6.40;;;15.00;58.80;;;;;;6121320;23;20409;-74
2023/05/02 11:32:48;;;;;;;7.20;6.13;;;14.90;58.60;;;;;;6146314;23;20400;-73
2023/05/02 11:35:22;;;;;;;6.40;5.70;;;14.70;59.60;;;;;;6139702;23;20383;-75
2023/05/02 11:38:04;;;;;;;8.07;6.30;;;14.70;59.00;;;;;;6116884;23;20414;-74
2023/05/02 11:40:31;;;;;;;6.93;6.23;;;14.90;59.00;;;;;;6142484;23;20488;-75
2023/05/02 11:42:58;;;;;;;15.63;7.93;;;15.00;58.30;;;;;;6116029;23;20371;-75
2023/05/02 11:45:35;;;;;;;9.37;6.87;;;15.00;57.80;;;;;;6116612;23;20447;-76
2023/05/02 11:48:08;;;;;;;9.10;7.37;;;15.00;57.80;;;;;;6142343;23;20372;-75
2023/05/02 11:50:47;;;;;;;8.30;6.43;;;15.10;57.00;;;;;;6119163;23;20439;-72
2023/05/02 11:53:21;;;;;;;10.30;6.70;;;15.20;56.60;;;;;;6118697;23;20383;-75
2023/05/02 11:55:51;;;;;;;15.63;8.90;;;15.30;56.00;;;;;;6117884;23;20379;-75
2023/05/02 11:58:22;;;;;;;11.50;8.57;;;15.40;54.90;;;;;;6145880;23;20408;-76
2023/05/02 12:00:50;;;;;;;11.40;7.37;;;15.40;54.70;;;;;;6116561;23;20479;-75
2023/05/02 12:03:34;;;;;;;10.53;7.53;;;15.50;54.80;;;;;;6116888;23;20415;-73
2023/05/02 12:06:14;;;;;;;8.50;6.70;;;15.80;53.70;;;;;;6143760;23;20371;-75
2023/05/02 12:08:43;;;;;;;5.17;4.47;;;16.20;51.90;;;;;;6116409;23;20391;-74
2023/05/02 12:11:12;;;;;;;8.30;5.43;;;16.40;51.60;;;;;;6115192;23;20370;-73
2023/05/02 12:13:47;;;;;;;8.07;5.97;;;16.50;49.80;;;;;;6116780;23;20369;-74
2023/05/02 12:16:13;;;;;;;6.43;3.63;;;16.40;49.60;;;;;;6140861;23;20363;-74
2023/05/02 12:18:39;;;;;;;7.10;4.30;;;16.40;50.70;;;;;;6119785;23;20508;-72
2023/05/02 12:21:06;;;;;;;7.20;5.13;;;16.60;50.40;;;;;;6143278;23;20129;-74
2023/05/02 12:23:32;;;;;;;9.50;5.10;;;16.60;50.20;;;;;;6115135;23;20379;-72
2023/05/02 12:25:58;;;;;;;11.23;5.40;;;16.10;51.00;;;;;;6113448;23;20367;-75
2023/05/02 12:28:23;;;;;;;8.63;4.87;;;16.00;51.50;;;;;;6141416;23;20376;-74
2023/05/02 12:30:50;;;;;;;9.43;5.40;;;16.00;51.10;;;;;;6140924;23;20160;-74
2023/05/02 12:33:16;;;;;;;8.47;4.97;;;16.10;50.80;;;;;;6117931;23;20148;-77
2023/05/02 12:35:48;;;;;;;8.40;4.23;;;16.30;50.50;;;;;;6116802;23;20412;-75
2023/05/02 12:38:20;;;;;;;7.37;5.80;;;16.20;50.40;;;;;;6118074;23;20418;-75
2023/05/02 12:40:51;;;;;;;8.33;5.17;;;16.20;49.70;;;;;;6113953;23;20428;-74